Time;durP1;ratioP1;P1;durP2;ratioP2;P2;SDS_P1;SDS_P2;PMS_P1;PMS_P2;Temp;Humidity;BMP_temperature;BMP_pressure;BME280_temperature;BME280_humidity;BME280_pressure;Samples;Min_cycle;Max_cycle;Signal;HPM_P1;HPM_P2
2022/12/20 00:00:15;;;;;;;7.27;6.30;;;;;;;;;;5032255;28;20197;-48
2022/12/20 00:02:43;;;;;;;8.73;6.67;;;;;;;;;;5032223;28;20205;-48
2022/12/20 00:05:09;;;;;;;11.13;7.40;;;;;;;;;;5032026;28;20207;-48
2022/12/20 00:07:35;;;;;;;9.13;6.83;;;;;;;;;;5032312;28;20371;-47
2022/12/20 00:10:01;;;;;;;7.43;6.73;;;;;;;;;;5032164;28;20645;-48
2022/12/20 00:12:27;;;;;;;9.83;7.00;;;;;;;;;;5031814;28;20324;-48
2022/12/20 00:14:53;;;;;;;8.97;6.87;;;;;;;;;;5032376;28;20193;-47
2022/12/20 00:17:19;;;;;;;8.60;7.00;;;;;;;;;;5031838;28;20284;-48
2022/12/20 00:19:47;;;;;;;11.17;7.83;;;;;;;;;;5032190;28;20200;-48
2022/12/20 00:22:13;;;;;;;9.47;7.43;;;;;;;;;;5031881;28;20288;-49
2022/12/20 00:24:39;;;;;;;10.53;7.53;;;;;;;;;;5032497;28;20739;-48
2022/12/20 00:27:05;;;;;;;9.23;7.30;;;;;;;;;;5032116;28;20196;-49
2022/12/20 00:29:31;;;;;;;7.40;6.60;;;;;;;;;;5031479;28;20205;-48
2022/12/20 00:31:57;;;;;;;7.50;6.70;;;;;;;;;;5031931;28;20201;-48
2022/12/20 00:34:23;;;;;;;10.80;7.13;;;;;;;;;;5031588;28;20274;-48
2022/12/20 00:36:50;;;;;;;7.93;7.13;;;;;;;;;;5031857;28;20274;-48
2022/12/20 00:39:16;;;;;;;9.53;7.07;;;;;;;;;;5031683;28;20237;-48
2022/12/20 00:41:42;;;;;;;9.60;6.67;;;;;;;;;;5012813;28;20683;-48
2022/12/20 00:44:08;;;;;;;11.23;7.83;;;;;;;;;;5012179;28;20201;-48
2022/12/20 00:46:34;;;;;;;7.73;6.70;;;;;;;;;;5011899;28;20205;-47
2022/12/20 00:49:00;;;;;;;9.77;7.13;;;;;;;;;;5012003;28;20213;-49
2022/12/20 00:51:27;;;;;;;7.90;6.60;;;;;;;;;;5011920;28;20280;-48
2022/12/20 00:53:55;;;;;;;7.97;6.90;;;;;;;;;;5011550;28;20645;-49
2022/12/20 00:56:21;;;;;;;8.63;7.13;;;;;;;;;;5011796;28;20205;-49
2022/12/20 00:58:47;;;;;;;8.10;6.90;;;;;;;;;;5012117;28;20193;-49
2022/12/20 01:01:17;;;;;;;7.73;6.93;;;;;;;;;;5008225;28;20670;-47
2022/12/20 01:03:43;;;;;;;9.53;7.07;;;;;;;;;;5010220;28;20193;-48
2022/12/20 01:06:10;;;;;;;7.30;6.30;;;;;;;;;;5011875;28;20201;-47
2022/12/20 01:08:36;;;;;;;9.87;6.60;;;;;;;;;;5011910;28;20531;-47
2022/12/20 01:11:05;;;;;;;9.27;6.97;;;;;;;;;;5011846;28;20201;-47
2022/12/20 01:13:32;;;;;;;9.13;6.67;;;;;;;;;;5011698;28;20232;-48
2022/12/20 01:16:03;;;;;;;7.60;6.60;;;;;;;;;;5011723;28;20553;-47
2022/12/20 01:18:29;;;;;;;8.87;7.80;;;;;;;;;;5011712;28;20202;-47
2022/12/20 01:21:00;;;;;;;9.80;7.30;;;;;;;;;;5011842;28;20546;-48
2022/12/20 01:23:26;;;;;;;7.53;6.63;;;;;;;;;;5013237;28;20193;-48
2022/12/20 01:25:52;;;;;;;9.93;7.90;;;;;;;;;;5015515;28;20210;-48
2022/12/20 01:28:19;;;;;;;9.27;7.33;;;;;;;;;;5015331;28;20228;-48
2022/12/20 01:30:45;;;;;;;8.87;7.20;;;;;;;;;;5015420;28;20201;-49
2022/12/20 01:33:11;;;;;;;8.20;7.20;;;;;;;;;;5015324;28;20437;-49
2022/12/20 01:35:37;;;;;;;9.37;8.10;;;;;;;;;;5015316;28;20656;-48
2022/12/20 01:38:03;;;;;;;10.40;7.73;;;;;;;;;;5015237;28;20317;-48
2022/12/20 01:40:29;;;;;;;7.83;6.90;;;;;;;;;;5015018;28;20233;-48
2022/12/20 01:42:55;;;;;;;10.23;7.50;;;;;;;;;;5015164;28;20204;-49
2022/12/20 01:45:26;;;;;;;8.10;7.20;;;;;;;;;;5015121;28;20687;-48
2022/12/20 01:47:52;;;;;;;7.90;6.80;;;;;;;;;;5015188;28;20209;-49
2022/12/20 01:50:18;;;;;;;9.10;7.00;;;;;;;;;;5015019;28;20202;-49
2022/12/20 01:52:46;;;;;;;9.30;7.13;;;;;;;;;;5014972;28;20233;-48
2022/12/20 01:55:14;;;;;;;9.50;7.07;;;;;;;;;;5014871;28;20204;-49
2022/12/20 01:57:42;;;;;;;8.90;7.07;;;;;;;;;;5014874;28;20729;-49
2022/12/20 02:00:09;;;;;;;9.43;7.13;;;;;;;;;;5015046;28;20284;-49
2022/12/20 02:02:37;;;;;;;10.23;7.63;;;;;;;;;;5014893;28;20221;-49
2022/12/20 02:05:04;;;;;;;8.73;7.00;;;;;;;;;;5014774;28;20208;-49
2022/12/20 02:07:31;;;;;;;8.90;6.73;;;;;;;;;;5014633;28;20212;-48
2022/12/20 02:09:58;;;;;;;7.40;6.60;;;;;;;;;;5014761;28;20193;-49
2022/12/20 02:12:25;;;;;;;9.93;6.77;;;;;;;;;;5014587;28;20228;-48
2022/12/20 02:14:57;;;;;;;11.57;7.60;;;;;;;;;;5014527;28;20680;-48
2022/12/20 02:17:28;;;;;;;8.13;7.10;;;;;;;;;;5014545;28;20452;-48
2022/12/20 02:20:15;;;;;;;7.70;6.83;;;;;;;;;;5014692;28;20201;-49
2022/12/20 02:22:50;;;;;;;8.67;6.87;;;;;;;;;;5007979;28;20201;-49
2022/12/20 02:25:31;;;;;;;7.93;6.47;;;;;;;;;;5014329;28;20223;-49
2022/12/20 02:28:00;;;;;;;9.80;7.00;;;;;;;;;;5010921;28;20205;-48
2022/12/20 02:30:31;;;;;;;8.40;6.17;;;;;;;;;;5014184;28;20273;-49
2022/12/20 02:32:59;;;;;;;9.83;6.57;;;;;;;;;;5014274;28;20260;-49
2022/12/20 02:35:26;;;;;;;7.33;6.63;;;;;;;;;;5014231;28;20222;-49
2022/12/20 02:37:53;;;;;;;7.03;6.33;;;;;;;;;;5014338;28;20201;-49
2022/12/20 02:40:21;;;;;;;11.10;6.50;;;;;;;;;;5014030;28;20291;-49
2022/12/20 02:42:50;;;;;;;7.37;6.30;;;;;;;;;;5014188;28;20208;-49
2022/12/20 02:45:19;;;;;;;6.80;6.10;;;;;;;;;;5014037;28;20198;-50
2022/12/20 02:47:48;;;;;;;9.03;6.17;;;;;;;;;;5014080;28;20241;-49
2022/12/20 02:50:16;;;;;;;8.60;6.73;;;;;;;;;;5013863;28;20248;-49
2022/12/20 02:52:42;;;;;;;7.07;6.17;;;;;;;;;;5013741;28;20229;-49
2022/12/20 02:55:08;;;;;;;7.20;6.40;;;;;;;;;;5013989;28;20260;-48
2022/12/20 02:57:38;;;;;;;8.47;6.13;;;;;;;;;;5013734;28;20672;-48
2022/12/20 03:00:06;;;;;;;9.40;5.80;;;;;;;;;;5013724;28;20190;-49
2022/12/20 03:03:21;;;;;;;8.50;6.50;;;;;;;;;;5013562;28;20248;-49
2022/12/20 03:05:21;;;;;;;6.67;5.80;;;;;;;;;;5013537;28;20290;-48
2022/12/20 03:07:47;;;;;;;6.50;5.63;;;;;;;;;;5013652;28;20197;-48
2022/12/20 03:10:13;;;;;;;6.83;5.57;;;;;;;;;;5013549;28;20209;-48
2022/12/20 03:12:39;;;;;;;7.20;5.67;;;;;;;;;;5013628;28;20295;-48
2022/12/20 03:15:06;;;;;;;6.47;5.70;;;;;;;;;;5013565;28;20205;-48
2022/12/20 03:17:32;;;;;;;6.97;6.10;;;;;;;;;;5013238;28;20221;-48
2022/12/20 03:19:58;;;;;;;8.30;6.57;;;;;;;;;;5013307;28;20653;-48
2022/12/20 03:22:26;;;;;;;6.03;5.33;;;;;;;;;;5013385;28;20225;-49
2022/12/20 03:24:52;;;;;;;7.27;5.30;;;;;;;;;;5013459;28;20292;-48
2022/12/20 03:27:18;;;;;;;5.60;5.10;;;;;;;;;;5013218;28;20194;-48
2022/12/20 03:29:44;;;;;;;7.73;5.87;;;;;;;;;;5013191;28;20255;-48
2022/12/20 03:32:10;;;;;;;7.27;5.47;;;;;;;;;;5013106;28;20209;-49
2022/12/20 03:34:36;;;;;;;6.27;5.00;;;;;;;;;;5013033;28;20217;-48
2022/12/20 03:37:02;;;;;;;6.60;5.03;;;;;;;;;;5013134;28;20205;-49
2022/12/20 03:39:30;;;;;;;5.90;5.20;;;;;;;;;;5012755;28;20734;-48
2022/12/20 03:41:56;;;;;;;6.63;5.20;;;;;;;;;;5013020;28;20198;-48
2022/12/20 03:44:23;;;;;;;8.40;5.57;;;;;;;;;;5012918;28;20670;-48
2022/12/20 03:46:49;;;;;;;7.23;5.20;;;;;;;;;;5012379;28;20293;-49
2022/12/20 03:49:15;;;;;;;7.53;5.27;;;;;;;;;;5012767;28;20233;-48
2022/12/20 03:51:42;;;;;;;6.10;5.13;;;;;;;;;;5012764;28;20198;-49
2022/12/20 03:54:07;;;;;;;5.60;5.10;;;;;;;;;;5012837;28;20301;-48
2022/12/20 03:56:35;;;;;;;7.07;4.93;;;;;;;;;;5012619;28;20731;-48
2022/12/20 03:59:01;;;;;;;6.03;5.40;;;;;;;;;;5012688;28;20205;-48
2022/12/20 04:01:28;;;;;;;5.87;5.07;;;;;;;;;;5012462;28;20687;-48
2022/12/20 04:03:54;;;;;;;5.67;5.00;;;;;;;;;;5012740;28;20263;-48
2022/12/20 04:06:21;;;;;;;7.20;5.27;;;;;;;;;;5012552;28;20229;-48
2022/12/20 04:08:47;;;;;;;7.43;6.10;;;;;;;;;;5012503;28;20193;-49
2022/12/20 04:11:16;;;;;;;6.63;5.47;;;;;;;;;;5012519;28;20201;-48
2022/12/20 04:13:43;;;;;;;6.03;4.90;;;;;;;;;;5012489;28;20279;-49
2022/12/20 04:16:09;;;;;;;6.03;5.23;;;;;;;;;;5012485;28;20206;-49
2022/12/20 04:18:35;;;;;;;5.80;4.90;;;;;;;;;;5012321;28;20567;-48
2022/12/20 04:21:02;;;;;;;5.73;4.93;;;;;;;;;;5012440;28;20216;-49
2022/12/20 04:23:28;;;;;;;9.23;5.73;;;;;;;;;;5012279;28;20289;-49
2022/12/20 04:25:54;;;;;;;5.37;4.80;;;;;;;;;;5012395;28;20273;-48
2022/12/20 04:28:20;;;;;;;5.37;4.80;;;;;;;;;;5012210;28;20280;-48
2022/12/20 04:30:47;;;;;;;5.40;4.90;;;;;;;;;;5012213;28;20201;-48
2022/12/20 04:33:13;;;;;;;5.40;4.70;;;;;;;;;;5011966;28;20592;-49
2022/12/20 04:35:39;;;;;;;5.57;4.90;;;;;;;;;;5012114;28;20223;-48
2022/12/20 04:38:05;;;;;;;6.20;4.80;;;;;;;;;;5012187;28;20293;-48
2022/12/20 04:40:31;;;;;;;5.83;5.13;;;;;;;;;;5011015;28;20316;-48
2022/12/20 04:42:57;;;;;;;6.50;5.00;;;;;;;;;;5011273;28;20560;-48
2022/12/20 04:45:23;;;;;;;7.03;4.90;;;;;;;;;;5011225;28;20209;-48
2022/12/20 04:47:51;;;;;;;5.63;4.90;;;;;;;;;;5011298;28;20240;-48
2022/12/20 04:50:17;;;;;;;6.93;4.60;;;;;;;;;;5011063;28;20213;-48
2022/12/20 04:55:28;;;;;;;8.30;4.67;;;;;;;;;;5011137;28;20553;-49
2022/12/20 04:57:54;;;;;;;6.50;5.07;;;;;;;;;;5011798;28;20194;-48
2022/12/20 05:00:21;;;;;;;7.20;4.83;;;;;;;;;;5014544;28;20209;-48
2022/12/20 05:02:47;;;;;;;6.83;4.93;;;;;;;;;;5014483;28;20319;-48
2022/12/20 05:05:14;;;;;;;5.80;4.93;;;;;;;;;;5014534;28;20201;-48
2022/12/20 05:07:40;;;;;;;6.70;5.30;;;;;;;;;;5014475;28;20674;-49
2022/12/20 05:10:07;;;;;;;7.83;5.47;;;;;;;;;;5014565;28;20574;-48
2022/12/20 05:12:33;;;;;;;7.10;4.93;;;;;;;;;;5014282;28;20279;-48
2022/12/20 05:14:59;;;;;;;6.90;5.43;;;;;;;;;;5014437;28;20208;-48
2022/12/20 05:17:25;;;;;;;6.27;4.93;;;;;;;;;;5014433;28;20205;-48
2022/12/20 05:19:51;;;;;;;7.67;6.00;;;;;;;;;;5014486;28;20280;-49
2022/12/20 05:27:48;;;;;;;5.90;5.30;;;;;;;;;;5014317;28;20718;-49
2022/12/20 05:30:15;;;;;;;6.07;5.47;;;;;;;;;;5014138;28;20256;-48
2022/12/20 05:32:41;;;;;;;5.93;5.27;;;;;;;;;;5014060;28;20228;-49
2022/12/20 05:35:07;;;;;;;6.90;6.20;;;;;;;;;;5014092;28;20221;-48
2022/12/20 05:37:35;;;;;;;7.27;6.03;;;;;;;;;;5013908;28;20281;-48
2022/12/20 05:40:01;;;;;;;7.97;6.53;;;;;;;;;;4978454;28;1052216;-48
2022/12/20 05:42:27;;;;;;;6.77;6.00;;;;;;;;;;5015169;28;20229;-48
2022/12/20 05:44:53;;;;;;;9.37;6.63;;;;;;;;;;5015220;28;20225;-48
2022/12/20 05:47:19;;;;;;;8.43;6.70;;;;;;;;;;5015015;28;20216;-48
2022/12/20 05:49:45;;;;;;;8.63;7.30;;;;;;;;;;5014859;28;20691;-48
2022/12/20 05:52:11;;;;;;;8.93;7.17;;;;;;;;;;5015056;28;20256;-48
2022/12/20 05:54:38;;;;;;;9.37;6.80;;;;;;;;;;5014867;28;20571;-48
2022/12/20 05:57:04;;;;;;;10.40;6.80;;;;;;;;;;5014909;28;20204;-48
2022/12/20 05:59:30;;;;;;;9.23;7.13;;;;;;;;;;5014808;28;20201;-48
2022/12/20 06:01:56;;;;;;;9.30;7.90;;;;;;;;;;5014820;28;20212;-48
2022/12/20 06:04:22;;;;;;;12.50;7.27;;;;;;;;;;5014856;28;20193;-48
2022/12/20 06:06:48;;;;;;;8.90;7.23;;;;;;;;;;5014800;28;20601;-48
2022/12/20 06:09:14;;;;;;;10.93;7.90;;;;;;;;;;5014303;28;20201;-47
2022/12/20 06:11:41;;;;;;;10.33;7.50;;;;;;;;;;5014514;28;20206;-48
2022/12/20 06:14:07;;;;;;;8.83;7.40;;;;;;;;;;5014657;28;20236;-48
2022/12/20 06:16:35;;;;;;;8.73;7.57;;;;;;;;;;5014093;28;20201;-47
2022/12/20 06:19:01;;;;;;;9.33;7.63;;;;;;;;;;5014582;28;20201;-48
2022/12/20 06:21:27;;;;;;;10.93;7.53;;;;;;;;;;5014316;28;20267;-48
2022/12/20 06:23:53;;;;;;;9.73;7.77;;;;;;;;;;5014548;28;20190;-47
2022/12/20 06:26:22;;;;;;;10.17;7.37;;;;;;;;;;5013945;28;20696;-47
2022/12/20 06:28:53;;;;;;;8.57;7.37;;;;;;;;;;5014301;28;20204;-48
2022/12/20 06:31:19;;;;;;;10.73;7.80;;;;;;;;;;5013891;28;20217;-47
2022/12/20 06:33:45;;;;;;;9.93;8.00;;;;;;;;;;5013754;28;20319;-47
2022/12/20 06:36:11;;;;;;;9.60;8.60;;;;;;;;;;5014146;28;20236;-48
2022/12/20 06:38:37;;;;;;;9.00;7.97;;;;;;;;;;5013846;28;20288;-48
2022/12/20 06:41:03;;;;;;;8.23;7.40;;;;;;;;;;5013935;28;20206;-47
2022/12/20 06:43:29;;;;;;;10.67;8.47;;;;;;;;;;5013814;28;20197;-48
2022/12/20 06:45:56;;;;;;;8.43;7.60;;;;;;;;;;5013999;28;20201;-47
2022/12/20 06:48:22;;;;;;;10.53;8.37;;;;;;;;;;5013850;28;20213;-48
2022/12/20 06:50:48;;;;;;;8.33;7.53;;;;;;;;;;5013968;28;20197;-48
2022/12/20 06:53:15;;;;;;;8.33;7.30;;;;;;;;;;5013618;28;20252;-47
2022/12/20 06:55:41;;;;;;;8.13;7.33;;;;;;;;;;5013645;28;20213;-47
2022/12/20 06:58:07;;;;;;;9.93;7.53;;;;;;;;;;5013911;28;20216;-48
2022/12/20 07:00:33;;;;;;;8.40;6.77;;;;;;;;;;5013645;28;20543;-47
2022/12/20 07:03:00;;;;;;;9.37;7.43;;;;;;;;;;5013722;28;20205;-48
2022/12/20 07:05:26;;;;;;;7.90;6.97;;;;;;;;;;5013638;28;20204;-48
2022/12/20 07:07:52;;;;;;;9.23;7.17;;;;;;;;;;5013469;28;20296;-47
2022/12/20 07:10:18;;;;;;;8.87;6.80;;;;;;;;;;5013539;28;20727;-47
2022/12/20 07:12:44;;;;;;;8.30;6.87;;;;;;;;;;5013253;28;20594;-47
2022/12/20 07:15:10;;;;;;;8.07;6.77;;;;;;;;;;5013382;28;20209;-48
2022/12/20 07:17:36;;;;;;;7.87;7.07;;;;;;;;;;5013393;28;20205;-48
2022/12/20 07:20:06;;;;;;;9.20;7.03;;;;;;;;;;5012888;28;20264;-49
2022/12/20 07:22:33;;;;;;;10.63;7.63;;;;;;;;;;5012341;28;20525;-48
2022/12/20 07:24:59;;;;;;;8.90;7.53;;;;;;;;;;5013075;28;20202;-48
2022/12/20 07:27:25;;;;;;;8.67;7.13;;;;;;;;;;5013002;28;20285;-48
2022/12/20 07:29:51;;;;;;;8.90;6.97;;;;;;;;;;5013054;28;20281;-48
2022/12/20 07:32:17;;;;;;;9.53;7.13;;;;;;;;;;5012893;28;20736;-48
2022/12/20 07:34:43;;;;;;;9.23;7.40;;;;;;;;;;5012581;28;20244;-48
2022/12/20 07:37:10;;;;;;;8.63;7.73;;;;;;;;;;5012999;28;20276;-48
2022/12/20 07:39:36;;;;;;;9.00;7.17;;;;;;;;;;5012635;28;20380;-48
2022/12/20 07:42:02;;;;;;;8.83;7.50;;;;;;;;;;5012753;28;20229;-48
2022/12/20 07:44:29;;;;;;;9.07;7.67;;;;;;;;;;5012666;28;20192;-48
2022/12/20 07:46:55;;;;;;;8.83;7.83;;;;;;;;;;5012754;28;20682;-48
2022/12/20 07:49:21;;;;;;;8.83;7.40;;;;;;;;;;5012631;28;20212;-48
2022/12/20 07:51:50;;;;;;;8.70;7.80;;;;;;;;;;5012686;28;20197;-48
2022/12/20 07:54:19;;;;;;;10.13;7.53;;;;;;;;;;5012495;28;20786;-47
2022/12/20 07:56:46;;;;;;;9.97;7.73;;;;;;;;;;5012593;28;20210;-48
2022/12/20 07:59:13;;;;;;;10.13;7.50;;;;;;;;;;5012398;28;20206;-48
2022/12/20 08:01:40;;;;;;;10.80;8.03;;;;;;;;;;5012302;28;20201;-48
2022/12/20 08:04:11;;;;;;;9.17;7.43;;;;;;;;;;5012431;28;20236;-48
2022/12/20 08:06:39;;;;;;;9.83;7.83;;;;;;;;;;5012678;28;20209;-48
2022/12/20 08:09:05;;;;;;;9.63;7.90;;;;;;;;;;5012415;28;20251;-48
2022/12/20 08:11:34;;;;;;;10.03;7.20;;;;;;;;;;5012289;28;20205;-47
2022/12/20 08:14:00;;;;;;;9.87;7.83;;;;;;;;;;5012363;28;20229;-48
2022/12/20 08:16:26;;;;;;;8.80;7.87;;;;;;;;;;5012238;28;20201;-48
2022/12/20 08:18:52;;;;;;;8.90;7.20;;;;;;;;;;5012400;28;20269;-49
2022/12/20 08:21:19;;;;;;;9.03;7.70;;;;;;;;;;5012065;28;20202;-48
2022/12/20 08:23:45;;;;;;;9.10;8.00;;;;;;;;;;5011884;28;20647;-48
2022/12/20 08:26:11;;;;;;;8.87;7.67;;;;;;;;;;5012109;28;20201;-49
2022/12/20 08:28:38;;;;;;;11.30;7.83;;;;;;;;;;5011931;28;20201;-48
2022/12/20 08:31:05;;;;;;;8.20;7.30;;;;;;;;;;5011947;28;20296;-48
2022/12/20 08:33:31;;;;;;;8.87;7.43;;;;;;;;;;5011440;28;20240;-48
2022/12/20 08:35:58;;;;;;;9.93;8.10;;;;;;;;;;5011989;28;20201;-48
2022/12/20 08:38:25;;;;;;;8.97;8.07;;;;;;;;;;5011927;28;20201;-48
2022/12/20 08:40:51;;;;;;;9.27;7.67;;;;;;;;;;5011905;28;20198;-48
2022/12/20 08:43:17;;;;;;;8.50;7.00;;;;;;;;;;5011878;28;20505;-48
2022/12/20 08:45:44;;;;;;;9.53;7.97;;;;;;;;;;5011665;28;20652;-48
2022/12/20 08:48:10;;;;;;;8.60;7.37;;;;;;;;;;5011900;28;20233;-49
2022/12/20 08:50:36;;;;;;;8.00;7.17;;;;;;;;;;5011745;28;20259;-49
2022/12/20 08:53:02;;;;;;;11.13;7.33;;;;;;;;;;5011655;28;20711;-49
2022/12/20 08:55:28;;;;;;;8.33;7.33;;;;;;;;;;5011746;28;20209;-49
2022/12/20 08:57:54;;;;;;;8.13;7.10;;;;;;;;;;5011876;28;20193;-48
2022/12/20 09:00:20;;;;;;;8.13;7.17;;;;;;;;;;5011642;28;20202;-49
2022/12/20 09:02:49;;;;;;;8.77;7.23;;;;;;;;;;5011582;28;20633;-49
2022/12/20 09:05:15;;;;;;;9.87;7.60;;;;;;;;;;5011690;28;20555;-48
2022/12/20 09:07:41;;;;;;;10.30;7.33;;;;;;;;;;5011565;28;20304;-49
2022/12/20 09:10:08;;;;;;;9.07;7.63;;;;;;;;;;5011736;28;20696;-49
2022/12/20 09:12:36;;;;;;;7.60;6.73;;;;;;;;;;5011490;28;20229;-48
2022/12/20 09:15:02;;;;;;;7.53;6.63;;;;;;;;;;5011491;28;20590;-48
2022/12/20 09:17:28;;;;;;;9.63;7.97;;;;;;;;;;5011988;28;20212;-48
2022/12/20 09:19:56;;;;;;;9.80;7.27;;;;;;;;;;5011888;28;20206;-48
2022/12/20 09:22:22;;;;;;;10.33;7.37;;;;;;;;;;5011524;28;20212;-48
2022/12/20 09:24:48;;;;;;;7.43;6.63;;;;;;;;;;5011360;28;20272;-49
2022/12/20 09:27:14;;;;;;;8.90;6.80;;;;;;;;;;5011519;28;20206;-48
2022/12/20 09:29:40;;;;;;;9.73;6.23;;;;;;;;;;5011307;28;20209;-48
2022/12/20 09:32:06;;;;;;;7.70;6.10;;;;;;;;;;5011491;28;20204;-49
2022/12/20 09:34:32;;;;;;;8.43;7.10;;;;;;;;;;5011226;28;20552;-48
2022/12/20 09:37:00;;;;;;;7.83;6.13;;;;;;;;;;5011436;28;20193;-48
2022/12/20 09:39:26;;;;;;;8.07;5.97;;;;;;;;;;5011211;28;20825;-48
2022/12/20 09:41:52;;;;;;;8.67;6.67;;;;;;;;;;5011758;28;20205;-50
2022/12/20 09:44:19;;;;;;;8.83;6.23;;;;;;;;;;5012335;28;20197;-49
2022/12/20 09:46:54;;;;;;;8.07;6.33;;;;;;;;;;5014605;28;20197;-48
2022/12/20 09:49:22;;;;;;;7.50;6.37;;;;;;;;;;5014848;28;20208;-48
2022/12/20 09:52:06;;;;;;;8.23;6.00;;;;;;;;;;5014661;28;20198;-48
2022/12/20 09:54:37;;;;;;;7.77;5.83;;;;;;;;;;5014722;28;20237;-47
2022/12/20 09:57:06;;;;;;;6.07;5.37;;;;;;;;;;5014806;28;20236;-49
2022/12/20 09:59:33;;;;;;;8.23;5.80;;;;;;;;;;5014445;28;20201;-50
2022/12/20 10:01:59;;;;;;;10.90;5.30;;;;;;;;;;5014577;28;20288;-49
2022/12/20 10:04:27;;;;;;;6.47;5.80;;;;;;;;;;5014680;28;20602;-47
2022/12/20 10:07:01;;;;;;;6.63;5.60;;;;;;;;;;5014730;28;20208;-49
2022/12/20 10:09:36;;;;;;;6.73;5.60;;;;;;;;;;5014748;28;20201;-47
2022/12/20 10:12:09;;;;;;;6.27;5.67;;;;;;;;;;5014476;28;20210;-48
2022/12/20 10:14:47;;;;;;;6.90;5.50;;;;;;;;;;5014388;28;20232;-48
2022/12/20 10:17:16;;;;;;;6.93;5.30;;;;;;;;;;5014556;28;20672;-48
2022/12/20 10:19:55;;;;;;;6.67;5.33;;;;;;;;;;5014497;28;20204;-49
2022/12/20 10:22:24;;;;;;;8.33;5.50;;;;;;;;;;5014583;28;20197;-48
2022/12/20 10:24:55;;;;;;;6.93;5.07;;;;;;;;;;5014373;28;20279;-49
2022/12/20 10:27:21;;;;;;;8.17;5.23;;;;;;;;;;5014499;28;20683;-48
2022/12/20 10:29:48;;;;;;;6.40;5.33;;;;;;;;;;5014345;28;20193;-49
2022/12/20 10:32:16;;;;;;;7.07;4.90;;;;;;;;;;5014398;28;20201;-48
2022/12/20 10:34:45;;;;;;;6.20;5.07;;;;;;;;;;5014050;28;20757;-48
2022/12/20 10:37:13;;;;;;;6.03;4.73;;;;;;;;;;5014147;28;20284;-48
2022/12/20 10:39:43;;;;;;;6.30;4.87;;;;;;;;;;5014142;28;20256;-49
2022/12/20 10:42:23;;;;;;;5.80;5.17;;;;;;;;;;5014413;28;20197;-47
2022/12/20 10:44:49;;;;;;;6.23;4.77;;;;;;;;;;5013930;28;20726;-45
2022/12/20 10:47:23;;;;;;;6.17;4.70;;;;;;;;;;5013951;28;20264;-47
2022/12/20 10:49:49;;;;;;;5.57;4.60;;;;;;;;;;5013936;28;20212;-47
2022/12/20 10:52:17;;;;;;;5.43;4.67;;;;;;;;;;5013849;28;20197;-47
2022/12/20 10:54:43;;;;;;;6.23;4.80;;;;;;;;;;5013468;28;20648;-47
2022/12/20 10:57:15;;;;;;;6.30;4.60;;;;;;;;;;5012969;28;20197;-47
2022/12/20 10:59:44;;;;;;;5.50;4.63;;;;;;;;;;5013615;28;20208;-47
2022/12/20 11:02:23;;;;;;;7.03;4.63;;;;;;;;;;5011661;28;20774;-47
2022/12/20 11:04:56;;;;;;;6.30;4.70;;;;;;;;;;5013151;28;20293;-47
2022/12/20 11:07:24;;;;;;;5.73;4.83;;;;;;;;;;5013257;28;20237;-47
2022/12/20 11:09:52;;;;;;;6.10;4.90;;;;;;;;;;5013282;28;20598;-47
2022/12/20 11:12:18;;;;;;;5.77;4.50;;;;;;;;;;5013057;28;20734;-47
2022/12/20 11:14:46;;;;;;;5.20;4.70;;;;;;;;;;5012792;28;20254;-47
2022/12/20 11:17:21;;;;;;;7.70;4.90;;;;;;;;;;5013047;28;20214;-47
2022/12/20 11:19:54;;;;;;;5.80;4.83;;;;;;;;;;5012773;28;20239;-47
2022/12/20 11:22:31;;;;;;;6.37;5.07;;;;;;;;;;5013012;28;20280;-48
2022/12/20 11:25:01;;;;;;;5.20;4.60;;;;;;;;;;5013454;28;20276;-47
2022/12/20 11:27:30;;;;;;;4.90;4.40;;;;;;;;;;5013234;28;20212;-47
2022/12/20 11:30:08;;;;;;;5.20;4.40;;;;;;;;;;5013166;28;20201;-48
2022/12/20 11:32:40;;;;;;;5.20;4.70;;;;;;;;;;5012792;28;20202;-47
2022/12/20 11:35:10;;;;;;;4.97;4.20;;;;;;;;;;5012822;28;20320;-47
2022/12/20 11:37:42;;;;;;;7.83;5.33;;;;;;;;;;5012820;28;20251;-48
2022/12/20 11:40:16;;;;;;;6.50;4.97;;;;;;;;;;5012711;28;20242;-47
2022/12/20 11:42:49;;;;;;;5.03;4.27;;;;;;;;;;5012649;28;20743;-47
2022/12/20 11:45:21;;;;;;;6.93;4.70;;;;;;;;;;5012573;28;20699;-47
2022/12/20 11:47:54;;;;;;;8.33;4.67;;;;;;;;;;5012583;28;20301;-48
2022/12/20 11:50:30;;;;;;;5.53;4.70;;;;;;;;;;5012667;28;20676;-47
2022/12/20 11:52:59;;;;;;;6.37;4.50;;;;;;;;;;5012391;28;20201;-48
2022/12/20 11:55:28;;;;;;;6.43;4.50;;;;;;;;;;5012678;28;20575;-47
2022/12/20 11:57:56;;;;;;;6.27;4.67;;;;;;;;;;5012746;28;20213;-47
2022/12/20 12:00:25;;;;;;;5.30;4.23;;;;;;;;;;5012670;28;20637;-46
2022/12/20 12:02:54;;;;;;;6.60;4.67;;;;;;;;;;5012682;28;20244;-47
2022/12/20 12:05:23;;;;;;;5.60;4.43;;;;;;;;;;5012506;28;20620;-48
2022/12/20 12:07:52;;;;;;;6.13;4.73;;;;;;;;;;5012163;28;20211;-47
2022/12/20 12:10:20;;;;;;;9.47;6.17;;;;;;;;;;5012374;28;20675;-47
2022/12/20 12:12:48;;;;;;;4.90;4.17;;;;;;;;;;5009860;28;20667;-47
2022/12/20 12:15:18;;;;;;;5.47;4.60;;;;;;;;;;5011694;28;20221;-47
2022/12/20 12:17:48;;;;;;;5.50;4.60;;;;;;;;;;5011850;28;20214;-47
2022/12/20 12:20:24;;;;;;;6.43;4.50;;;;;;;;;;5011944;28;20260;-47
2022/12/20 12:22:53;;;;;;;5.50;4.43;;;;;;;;;;5011884;28;20280;-47
2022/12/20 12:25:19;;;;;;;5.00;4.00;;;;;;;;;;5011744;28;20217;-46
2022/12/20 12:27:45;;;;;;;4.67;4.20;;;;;;;;;;5011637;28;20228;-47
2022/12/20 12:30:12;;;;;;;5.43;4.37;;;;;;;;;;5011709;28;20755;-47
2022/12/20 12:32:41;;;;;;;6.83;4.27;;;;;;;;;;5012189;28;20209;-47
2022/12/20 12:35:17;;;;;;;4.93;4.50;;;;;;;;;;5011743;28;20320;-47
2022/12/20 12:37:53;;;;;;;6.10;4.33;;;;;;;;;;5011409;28;20212;-47
2022/12/20 12:40:47;;;;;;;5.07;4.57;;;;;;;;;;5011605;28;20241;-49
2022/12/20 12:43:21;;;;;;;4.10;3.67;;;;;;;;;;5012111;28;20197;-48
2022/12/20 12:45:48;;;;;;;5.97;4.37;;;;;;;;;;5009471;28;20288;-47
2022/12/20 12:48:16;;;;;;;6.00;4.70;;;;;;;;;;5011401;28;20197;-47
2022/12/20 12:50:44;;;;;;;6.43;4.50;;;;;;;;;;5011410;28;20229;-48
2022/12/20 12:53:13;;;;;;;4.37;3.93;;;;;;;;;;5011561;28;20201;-47
2022/12/20 12:55:43;;;;;;;5.27;4.70;;;;;;;;;;5011508;28;20247;-47
2022/12/20 12:58:30;;;;;;;6.33;4.17;;;;;;;;;;5011828;28;20204;-47
2022/12/20 13:00:57;;;;;;;4.87;3.97;;;;;;;;;;5011796;28;20214;-48
2022/12/20 13:03:36;;;;;;;5.03;4.00;;;;;;;;;;5011528;28;20198;-48
2022/12/20 13:06:16;;;;;;;4.70;3.47;;;;;;;;;;5011549;28;20628;-47
2022/12/20 13:08:48;;;;;;;8.50;4.53;;;;;;;;;;5011152;28;20211;-47
2022/12/20 13:11:27;;;;;;;5.67;4.77;;;;;;;;;;5011343;28;20304;-47
2022/12/20 13:14:11;;;;;;;7.13;4.33;;;;;;;;;;5011431;28;20217;-47
2022/12/20 13:16:40;;;;;;;7.90;4.93;;;;;;;;;;5011473;28;20209;-47
2022/12/20 13:19:14;;;;;;;5.97;4.50;;;;;;;;;;5012249;28;20679;-47
2022/12/20 13:21:43;;;;;;;6.60;5.10;;;;;;;;;;5015239;28;20194;-47
2022/12/20 13:24:36;;;;;;;5.77;4.67;;;;;;;;;;5015414;28;20281;-47
2022/12/20 13:27:13;;;;;;;5.63;4.67;;;;;;;;;;5015150;28;20570;-47
2022/12/20 13:29:50;;;;;;;7.30;4.83;;;;;;;;;;5015110;28;20198;-47
2022/12/20 13:32:31;;;;;;;8.33;4.87;;;;;;;;;;5015086;28;20202;-48
2022/12/20 13:34:57;;;;;;;4.90;4.50;;;;;;;;;;5014589;28;20236;-47
2022/12/20 13:37:27;;;;;;;6.63;4.80;;;;;;;;;;5015277;28;20201;-47
2022/12/20 13:39:53;;;;;;;5.43;4.67;;;;;;;;;;5014866;28;20233;-47
2022/12/20 13:42:27;;;;;;;5.57;4.57;;;;;;;;;;5014842;28;20296;-47
2022/12/20 13:44:54;;;;;;;5.10;4.30;;;;;;;;;;5014781;28;20680;-49
2022/12/20 13:47:27;;;;;;;4.90;4.40;;;;;;;;;;5014657;28;20248;-48
2022/12/20 13:49:53;;;;;;;6.03;4.60;;;;;;;;;;5014669;28;20605;-46
2022/12/20 13:52:28;;;;;;;5.03;4.53;;;;;;;;;;5014542;28;20198;-47
2022/12/20 13:54:56;;;;;;;4.43;4.00;;;;;;;;;;5014580;28;20706;-47
2022/12/20 13:57:27;;;;;;;5.50;4.87;;;;;;;;;;5014700;28;20255;-46
2022/12/20 13:59:54;;;;;;;10.40;4.90;;;;;;;;;;5014390;28;20202;-47
2022/12/20 14:02:21;;;;;;;6.23;5.13;;;;;;;;;;5014519;28;20609;-48
2022/12/20 14:04:54;;;;;;;8.53;5.67;;;;;;;;;;5014212;28;20217;-48
2022/12/20 14:07:20;;;;;;;7.33;5.50;;;;;;;;;;5014371;28;20284;-48
2022/12/20 14:09:47;;;;;;;6.83;5.20;;;;;;;;;;5014191;28;20611;-48
2022/12/20 14:12:13;;;;;;;7.80;4.73;;;;;;;;;;5014300;28;20202;-48
2022/12/20 14:14:43;;;;;;;5.37;4.53;;;;;;;;;;5014150;28;20226;-48
2022/12/20 14:17:16;;;;;;;6.43;5.17;;;;;;;;;;5014303;28;20292;-47
2022/12/20 14:19:42;;;;;;;5.73;4.50;;;;;;;;;;5013991;28;20209;-48
2022/12/20 14:22:09;;;;;;;5.53;4.77;;;;;;;;;;5014132;28;20193;-48
2022/12/20 14:24:35;;;;;;;6.60;5.33;;;;;;;;;;5013863;28;20194;-48
2022/12/20 14:27:02;;;;;;;8.53;5.70;;;;;;;;;;5013784;28;20632;-48
2022/12/20 14:29:29;;;;;;;7.67;5.37;;;;;;;;;;5013597;28;20614;-48
2022/12/20 14:31:56;;;;;;;6.67;5.70;;;;;;;;;;5013856;28;20272;-48
2022/12/20 14:34:24;;;;;;;7.83;5.53;;;;;;;;;;5013762;28;20237;-47
2022/12/20 14:36:51;;;;;;;6.00;5.20;;;;;;;;;;5013596;28;20206;-48
2022/12/20 14:39:27;;;;;;;9.13;6.47;;;;;;;;;;5013659;28;20261;-48
2022/12/20 14:41:56;;;;;;;7.73;5.90;;;;;;;;;;5013875;28;20244;-48
2022/12/20 14:44:24;;;;;;;8.37;5.13;;;;;;;;;;5013565;28;20198;-47
2022/12/20 14:46:50;;;;;;;8.47;5.63;;;;;;;;;;5013444;28;20536;-48
2022/12/20 14:49:21;;;;;;;6.03;5.27;;;;;;;;;;5013331;28;20252;-47
2022/12/20 14:51:47;;;;;;;5.30;4.80;;;;;;;;;;5013653;28;20226;-48
2022/12/20 14:54:16;;;;;;;8.73;5.60;;;;;;;;;;5013825;28;20303;-47